Time;durP1;ratioP1;P1;durP2;ratioP2;P2;SDS_P1;SDS_P2;PMS_P1;PMS_P2;Temp;Humidity;BMP_temperature;BMP_pressure;BME280_temperature;BME280_humidity;BME280_pressure;Samples;Min_cycle;Max_cycle;Signal;HPM_P1;HPM_P2
2023/09/12 00:01:41;;;;;;;12.32;11.13;;;21.80;99.90;;;;;;5021545;28;20026;-74
2023/09/12 00:04:07;;;;;;;12.88;11.07;;;21.80;99.90;;;;;;5021455;28;20025;-73
2023/09/12 00:06:33;;;;;;;12.57;11.32;;;21.80;99.90;;;;;;5019768;28;20029;-73
2023/09/12 00:08:58;;;;;;;12.80;11.10;;;21.80;99.90;;;;;;5022853;28;20021;-73
2023/09/12 00:11:25;;;;;;;12.70;11.40;;;21.70;99.90;;;;;;5012186;28;20022;-73
2023/09/12 00:13:51;;;;;;;15.85;11.63;;;21.70;99.90;;;;;;5021021;28;20497;-73
2023/09/12 00:16:17;;;;;;;13.35;12.05;;;21.70;99.90;;;;;;5022721;28;20029;-73
2023/09/12 00:18:43;;;;;;;16.30;11.68;;;21.70;99.90;;;;;;5019692;28;20076;-76
2023/09/12 00:21:08;;;;;;;14.85;12.23;;;21.70;99.90;;;;;;5022259;28;20504;-76
2023/09/12 00:23:34;;;;;;;12.85;11.68;;;21.70;99.90;;;;;;5021401;28;20033;-77
2023/09/12 00:26:00;;;;;;;14.25;11.85;;;21.70;99.90;;;;;;5021442;28;20029;-76
2023/09/12 00:28:26;;;;;;;14.48;12.00;;;21.70;99.90;;;;;;5023468;28;20500;-77
2023/09/12 00:30:53;;;;;;;15.30;12.25;;;21.70;99.90;;;;;;5011789;28;20030;-77
2023/09/12 00:33:18;;;;;;;14.20;12.48;;;21.60;99.90;;;;;;5021471;28;20025;-76
2023/09/12 00:35:44;;;;;;;12.35;11.00;;;21.70;99.90;;;;;;5021584;28;20037;-76
2023/09/12 00:38:10;;;;;;;13.18;11.73;;;21.70;99.90;;;;;;5019817;28;20561;-76
2023/09/12 00:40:37;;;;;;;17.52;12.65;;;21.70;99.90;;;;;;5022810;28;20536;-76
2023/09/12 00:43:03;;;;;;;14.52;12.38;;;21.60;99.90;;;;;;5019064;28;20018;-77
2023/09/12 00:45:29;;;;;;;14.32;11.40;;;21.60;99.90;;;;;;5021235;28;20044;-76
2023/09/12 00:47:58;;;;;;;16.90;12.50;;;21.60;99.90;;;;;;5019907;28;20021;-76
2023/09/12 00:50:25;;;;;;;13.93;12.50;;;21.60;99.90;;;;;;5022592;28;20033;-76
2023/09/12 00:52:53;;;;;;;15.65;12.98;;;21.60;99.90;;;;;;5020249;28;20405;-77
2023/09/12 00:55:19;;;;;;;13.18;12.07;;;21.60;99.90;;;;;;5020824;28;20076;-76
2023/09/12 00:57:46;;;;;;;14.90;11.98;;;21.60;99.90;;;;;;5024418;28;20026;-76
2023/09/12 01:00:13;;;;;;;18.38;12.27;;;21.60;99.90;;;;;;5019446;28;20030;-76
2023/09/12 01:02:44;;;;;;;15.18;12.55;;;21.60;99.90;;;;;;5003719;28;20517;-76
2023/09/12 01:05:11;;;;;;;14.00;12.48;;;21.60;99.90;;;;;;5021943;28;20087;-76
2023/09/12 01:07:37;;;;;;;14.98;13.45;;;21.60;99.90;;;;;;5001638;28;20029;-76
2023/09/12 01:10:04;;;;;;;20.50;12.82;;;21.60;99.90;;;;;;5022403;28;20033;-76
2023/09/12 01:12:30;;;;;;;13.93;12.38;;;21.60;99.90;;;;;;5024757;28;20050;-76
2023/09/12 01:14:56;;;;;;;15.50;13.30;;;21.60;99.90;;;;;;5023793;28;20069;-76
2023/09/12 01:17:23;;;;;;;15.05;12.25;;;21.60;99.90;;;;;;5022223;28;20022;-77
2023/09/12 01:19:49;;;;;;;14.60;13.02;;;21.60;99.90;;;;;;5025965;28;20057;-76
2023/09/12 01:22:21;;;;;;;15.02;12.77;;;21.60;99.90;;;;;;5024374;28;20481;-76
2023/09/12 01:25:04;;;;;;;14.60;13.07;;;21.50;99.90;;;;;;5023371;28;20068;-77
2023/09/12 01:27:40;;;;;;;17.42;12.70;;;21.50;99.90;;;;;;5009953;28;20025;-77
2023/09/12 01:30:08;;;;;;;16.85;13.52;;;21.50;99.90;;;;;;5023490;28;20034;-77
2023/09/12 01:32:35;;;;;;;14.82;13.25;;;21.50;99.90;;;;;;5027995;28;20021;-76
2023/09/12 01:35:03;;;;;;;14.50;12.95;;;21.50;99.90;;;;;;5026445;28;20100;-76
2023/09/12 01:37:30;;;;;;;14.52;12.90;;;21.50;99.90;;;;;;5025695;28;20495;-77
2023/09/12 01:39:56;;;;;;;18.92;13.45;;;21.50;99.90;;;;;;5023509;28;20029;-77
2023/09/12 01:42:23;;;;;;;15.40;13.80;;;21.50;99.90;;;;;;5006361;28;20445;-76
2023/09/12 01:44:55;;;;;;;14.77;13.25;;;21.50;99.90;;;;;;5025334;28;20029;-77
2023/09/12 01:47:22;;;;;;;14.07;12.57;;;21.50;99.90;;;;;;5021802;28;20030;-77
2023/09/12 01:49:52;;;;;;;13.82;12.50;;;21.50;99.90;;;;;;5024061;28;20484;-76
2023/09/12 01:52:19;;;;;;;17.38;13.05;;;21.50;99.90;;;;;;5025286;28;20037;-77
2023/09/12 01:54:46;;;;;;;14.45;12.95;;;21.50;99.90;;;;;;5022453;28;20026;-76
2023/09/12 01:57:13;;;;;;;15.23;13.35;;;21.40;99.90;;;;;;5027425;28;20022;-76
2023/09/12 01:59:39;;;;;;;16.88;13.27;;;21.50;99.90;;;;;;5024271;28;20087;-76
2023/09/12 02:02:05;;;;;;;14.85;13.32;;;21.50;99.90;;;;;;5022336;28;20106;-76
2023/09/12 02:04:30;;;;;;;16.17;13.48;;;21.50;99.90;;;;;;5025337;28;20029;-76
2023/09/12 02:06:58;;;;;;;15.00;13.52;;;21.50;99.90;;;;;;5022899;28;20026;-76
2023/09/12 02:09:23;;;;;;;18.52;13.27;;;21.50;99.90;;;;;;5025878;28;20030;-76
2023/09/12 02:11:50;;;;;;;15.65;13.55;;;21.50;99.90;;;;;;5022721;28;20394;-76
2023/09/12 02:14:17;;;;;;;15.90;12.93;;;21.50;99.90;;;;;;5025160;28;20025;-76
2023/09/12 02:16:43;;;;;;;17.42;13.45;;;21.50;99.90;;;;;;5022435;28;20057;-76
2023/09/12 02:19:09;;;;;;;14.27;12.75;;;21.40;99.90;;;;;;5023492;28;20061;-77
2023/09/12 02:21:34;;;;;;;15.57;12.60;;;21.50;99.90;;;;;;5023200;28;20025;-76
2023/09/12 02:24:00;;;;;;;15.48;14.00;;;21.50;99.90;;;;;;5021750;28;20514;-76
2023/09/12 02:26:26;;;;;;;15.00;13.50;;;21.40;99.90;;;;;;5025501;28;20029;-76
2023/09/12 02:28:52;;;;;;;18.85;14.15;;;21.40;99.90;;;;;;5023944;28;20535;-76
2023/09/12 02:31:17;;;;;;;15.18;13.57;;;21.40;99.90;;;;;;5022186;28;20026;-77
2023/09/12 02:33:43;;;;;;;15.95;13.38;;;21.30;99.90;;;;;;5024867;28;20033;-76
2023/09/12 02:36:09;;;;;;;15.60;14.00;;;21.30;99.90;;;;;;5021525;28;20026;-77
2023/09/12 02:38:34;;;;;;;16.60;13.50;;;21.30;99.90;;;;;;5024361;28;20036;-76
2023/09/12 02:41:02;;;;;;;14.05;12.65;;;21.40;99.90;;;;;;5013624;28;20034;-75
2023/09/12 02:43:28;;;;;;;16.23;14.32;;;21.40;99.90;;;;;;5022502;28;20474;-76
2023/09/12 02:45:54;;;;;;;15.27;13.55;;;21.40;99.90;;;;;;5024470;28;20385;-76
2023/09/12 02:48:20;;;;;;;20.30;13.65;;;21.40;99.90;;;;;;5021287;28;20037;-76
2023/09/12 02:50:45;;;;;;;16.38;13.77;;;21.40;99.90;;;;;;5023560;28;20022;-76
2023/09/12 02:53:11;;;;;;;16.80;15.20;;;21.40;99.90;;;;;;5014016;28;20295;-76
2023/09/12 02:55:41;;;;;;;16.67;14.05;;;21.40;99.90;;;;;;5022044;28;20025;-76
2023/09/12 02:58:07;;;;;;;19.25;14.73;;;21.30;99.90;;;;;;5010720;28;20036;-76
2023/09/12 03:00:33;;;;;;;18.85;14.85;;;21.30;99.90;;;;;;5023352;28;20393;-76
2023/09/12 03:02:58;;;;;;;17.80;15.15;;;21.30;1.00;;;;;;5022716;28;20022;-76
2023/09/12 03:05:24;;;;;;;16.80;14.82;;;21.30;1.00;;;;;;5004053;28;20033;-76
2023/09/12 03:07:50;;;;;;;16.30;14.80;;;21.30;1.00;;;;;;5024055;28;20030;-76
2023/09/12 03:10:15;;;;;;;16.20;14.63;;;21.30;1.00;;;;;;5021071;28;20037;-76
2023/09/12 03:12:41;;;;;;;15.77;14.15;;;21.30;1.00;;;;;;5023050;28;20056;-77
2023/09/12 03:15:07;;;;;;;15.68;14.02;;;21.30;1.00;;;;;;5022815;28;20052;-76
2023/09/12 03:17:33;;;;;;;17.80;14.50;;;21.30;1.00;;;;;;5020988;28;20427;-76
2023/09/12 03:20:00;;;;;;;16.13;14.20;;;21.30;1.00;;;;;;5023751;28;20116;-76
2023/09/12 03:22:25;;;;;;;16.35;14.68;;;21.30;1.00;;;;;;5021479;28;20068;-77
2023/09/12 03:24:51;;;;;;;16.35;14.65;;;21.30;1.00;;;;;;5022452;28;20029;-77
2023/09/12 03:27:17;;;;;;;21.90;15.43;;;21.30;1.00;;;;;;5023645;28;20018;-76
2023/09/12 03:29:46;;;;;;;18.83;15.80;;;21.30;1.00;;;;;;5014281;28;20095;-76
2023/09/12 03:32:11;;;;;;;18.75;15.45;;;21.30;1.00;;;;;;5020831;28;20389;-76
2023/09/12 03:34:37;;;;;;;18.33;15.90;;;21.30;1.00;;;;;;5004353;28;20014;-77
2023/09/12 03:37:03;;;;;;;25.15;16.83;;;21.30;1.00;;;;;;5022468;28;20037;-76
2023/09/12 03:39:29;;;;;;;17.23;15.57;;;21.30;1.00;;;;;;5026670;28;20057;-77
2023/09/12 03:41:54;;;;;;;22.30;15.70;;;21.30;1.00;;;;;;5025212;28;20033;-76
2023/09/12 03:44:20;;;;;;;19.20;16.42;;;21.30;1.00;;;;;;5021133;28;20073;-76
2023/09/12 03:46:46;;;;;;;19.70;15.40;;;21.30;1.00;;;;;;5006374;28;20110;-77
2023/09/12 03:49:11;;;;;;;17.92;16.17;;;21.30;1.00;;;;;;5021180;28;20022;-76
2023/09/12 03:51:37;;;;;;;18.27;16.17;;;21.30;1.00;;;;;;5014328;28;20063;-76
2023/09/12 03:54:03;;;;;;;17.40;15.57;;;21.30;1.00;;;;;;5020589;28;20057;-77
2023/09/12 03:56:29;;;;;;;18.73;15.73;;;21.30;1.00;;;;;;5028301;28;20100;-77
2023/09/12 03:58:57;;;;;;;18.25;16.42;;;21.30;1.00;;;;;;5032828;28;20018;-76
2023/09/12 04:01:23;;;;;;;17.52;15.73;;;21.40;1.00;;;;;;5032903;28;20049;-76
2023/09/12 04:03:49;;;;;;;19.70;15.55;;;21.40;1.00;;;;;;5027735;28;20094;-76
2023/09/12 04:06:14;;;;;;;18.52;15.35;;;21.40;1.00;;;;;;5020764;28;20497;-76
2023/09/12 04:08:40;;;;;;;18.83;16.50;;;21.40;1.00;;;;;;5024643;28;20022;-76
2023/09/12 04:11:06;;;;;;;17.73;15.88;;;21.40;1.00;;;;;;5024764;28;20495;-76
2023/09/12 04:13:31;;;;;;;20.80;16.20;;;21.50;1.00;;;;;;5021238;28;20018;-76
2023/09/12 04:15:57;;;;;;;17.95;16.10;;;21.50;1.00;;;;;;5013684;28;20032;-76
2023/09/12 04:18:23;;;;;;;17.92;15.50;;;21.60;1.00;;;;;;5032571;28;20021;-76
2023/09/12 04:20:48;;;;;;;18.27;14.93;;;21.60;1.00;;;;;;5026688;28;20421;-76
2023/09/12 04:23:14;;;;;;;18.02;14.30;;;21.60;1.00;;;;;;5014938;28;20025;-77
2023/09/12 04:25:45;;;;;;;17.40;15.40;;;21.60;1.00;;;;;;5024790;28;20022;-76
2023/09/12 04:28:11;;;;;;;17.60;15.82;;;21.60;1.00;;;;;;5016841;28;20026;-76
2023/09/12 04:30:37;;;;;;;17.88;16.00;;;21.60;1.00;;;;;;5012898;28;20033;-76
2023/09/12 04:33:03;;;;;;;21.10;15.85;;;21.60;1.00;;;;;;5012750;28;20101;-76
2023/09/12 04:35:29;;;;;;;19.95;15.65;;;21.60;1.00;;;;;;5024417;28;20034;-76
2023/09/12 04:37:55;;;;;;;16.50;14.60;;;21.60;1.00;;;;;;5011666;28;20363;-77
2023/09/12 04:40:20;;;;;;;17.92;16.13;;;21.60;1.00;;;;;;5013024;28;20038;-77
2023/09/12 04:42:46;;;;;;;24.80;15.82;;;21.70;1.00;;;;;;5012977;28;20485;-77
2023/09/12 04:45:12;;;;;;;18.90;15.27;;;21.60;1.00;;;;;;5013853;28;20113;-76
2023/09/12 04:47:37;;;;;;;19.08;15.90;;;21.60;1.00;;;;;;5016609;28;20026;-76
2023/09/12 04:50:03;;;;;;;17.45;15.52;;;21.60;1.00;;;;;;5033438;28;20037;-76
2023/09/12 04:52:29;;;;;;;16.52;14.77;;;21.60;1.00;;;;;;5035002;28;20050;-76
2023/09/12 04:54:54;;;;;;;22.30;15.45;;;21.60;1.00;;;;;;5036458;28;20388;-77
2023/09/12 04:57:20;;;;;;;17.15;15.45;;;21.60;1.00;;;;;;5036281;28;20056;-76
2023/09/12 04:59:46;;;;;;;18.15;15.13;;;21.50;1.00;;;;;;5018686;28;20034;-76
2023/09/12 05:02:12;;;;;;;18.25;15.00;;;21.60;1.00;;;;;;5036424;28;20495;-76
2023/09/12 05:04:37;;;;;;;17.65;15.00;;;21.60;1.00;;;;;;5036408;28;20029;-77
2023/09/12 05:07:03;;;;;;;17.80;15.85;;;21.60;1.00;;;;;;5018547;28;20104;-76
2023/09/12 05:09:29;;;;;;;18.85;16.17;;;21.60;1.00;;;;;;5018553;28;20038;-76
2023/09/12 05:11:54;;;;;;;19.75;16.10;;;21.60;1.00;;;;;;5036334;28;20104;-76
2023/09/12 05:14:20;;;;;;;21.98;15.88;;;21.60;1.00;;;;;;5022884;28;20026;-76
2023/09/12 05:16:46;;;;;;;20.08;17.90;;;21.60;1.00;;;;;;5017709;28;20025;-76
2023/09/12 05:19:12;;;;;;;19.50;17.20;;;21.50;1.00;;;;;;5020583;28;20018;-77
2023/09/12 05:21:37;;;;;;;17.35;15.73;;;21.50;1.00;;;;;;5036009;28;20033;-76
2023/09/12 05:24:03;;;;;;;17.70;15.85;;;21.50;1.00;;;;;;5031016;28;20048;-76
2023/09/12 05:26:29;;;;;;;17.50;15.75;;;21.50;1.00;;;;;;5020560;28;20033;-76
2023/09/12 05:28:55;;;;;;;20.40;17.13;;;21.50;1.00;;;;;;5035825;28;20021;-76
2023/09/12 05:31:20;;;;;;;21.05;16.33;;;21.50;1.00;;;;;;5034138;28;20041;-76
2023/09/12 05:33:46;;;;;;;17.33;15.40;;;21.50;1.00;;;;;;5032124;28;20013;-77
2023/09/12 05:36:12;;;;;;;19.17;16.67;;;21.50;1.00;;;;;;5017920;28;20028;-76
2023/09/12 05:38:37;;;;;;;20.63;16.92;;;21.50;1.00;;;;;;5035732;28;20025;-77
2023/09/12 05:41:03;;;;;;;20.70;16.52;;;21.50;1.00;;;;;;5035603;28;20036;-76
2023/09/12 05:43:29;;;;;;;18.98;16.45;;;21.50;1.00;;;;;;5035928;28;20112;-76
2023/09/12 05:45:57;;;;;;;20.40;16.67;;;21.50;1.00;;;;;;5023016;28;20084;-76
2023/09/12 05:48:23;;;;;;;20.65;17.60;;;21.60;1.00;;;;;;5025229;28;20022;-76
2023/09/12 05:50:48;;;;;;;22.85;16.27;;;21.50;1.00;;;;;;5035534;28;20476;-77
2023/09/12 05:53:14;;;;;;;24.38;16.52;;;21.60;1.00;;;;;;5024119;28;20049;-76
2023/09/12 05:55:40;;;;;;;19.30;17.30;;;21.60;1.00;;;;;;5035135;28;20032;-77
2023/09/12 05:58:06;;;;;;;19.10;17.15;;;21.60;1.00;;;;;;5035451;28;20096;-77
2023/09/12 06:00:32;;;;;;;18.65;16.33;;;21.60;1.00;;;;;;5035103;28;20029;-76
2023/09/12 06:02:58;;;;;;;20.98;16.70;;;21.60;1.00;;;;;;5035036;28;20454;-76
2023/09/12 06:05:24;;;;;;;21.92;16.85;;;21.70;1.00;;;;;;5035181;28;20068;-77
2023/09/12 06:07:50;;;;;;;23.20;17.48;;;21.70;1.00;;;;;;5017163;28;20056;-76
2023/09/12 06:10:16;;;;;;;17.63;15.55;;;21.80;1.00;;;;;;5035029;28;20109;-77
2023/09/12 06:12:41;;;;;;;23.27;16.80;;;21.80;1.00;;;;;;5034485;28;20092;-76
2023/09/12 06:15:07;;;;;;;24.02;17.35;;;21.80;1.00;;;;;;5016209;28;20010;-77
2023/09/12 06:17:33;;;;;;;19.13;16.90;;;21.90;1.00;;;;;;5026183;28;20026;-76
2023/09/12 06:19:59;;;;;;;19.73;17.08;;;21.90;1.00;;;;;;4998501;28;20482;-77
2023/09/12 06:22:25;;;;;;;22.67;16.35;;;21.90;1.00;;;;;;5016687;28;20034;-76
2023/09/12 06:24:51;;;;;;;18.63;16.83;;;22.00;1.00;;;;;;5034914;28;20489;-77
2023/09/12 06:27:19;;;;;;;19.10;16.75;;;22.00;1.00;;;;;;5005355;28;20037;-76
2023/09/12 06:29:48;;;;;;;19.45;17.30;;;22.00;1.00;;;;;;5017707;28;20340;-78
2023/09/12 06:32:14;;;;;;;25.73;17.00;;;22.10;1.00;;;;;;5027381;28;20021;-77
2023/09/12 06:34:40;;;;;;;20.83;17.77;;;22.10;1.00;;;;;;5028383;28;20013;-77
2023/09/12 06:37:06;;;;;;;21.33;17.33;;;22.10;1.00;;;;;;5030446;28;20029;-77
2023/09/12 06:39:32;;;;;;;19.50;17.10;;;22.10;1.00;;;;;;5026337;28;20022;-77
2023/09/12 06:41:57;;;;;;;18.42;16.67;;;22.20;1.00;;;;;;5034543;28;20037;-76
2023/09/12 06:44:23;;;;;;;17.83;15.93;;;22.20;1.00;;;;;;5002734;28;20116;-76
2023/09/12 06:46:49;;;;;;;18.83;15.93;;;22.30;1.00;;;;;;5033278;28;20033;-76
2023/09/12 06:49:14;;;;;;;23.48;15.68;;;22.30;1.00;;;;;;5034435;28;20057;-76
2023/09/12 06:51:40;;;;;;;21.30;17.08;;;22.30;1.00;;;;;;5017882;28;20098;-76
2023/09/12 06:54:06;;;;;;;22.50;16.88;;;22.40;1.00;;;;;;5014536;28;20038;-77
2023/09/12 06:56:32;;;;;;;22.55;17.17;;;22.50;1.00;;;;;;5016263;28;20030;-76
2023/09/12 06:58:59;;;;;;;25.50;17.73;;;22.50;1.00;;;;;;5021634;28;20088;-76
2023/09/12 07:01:25;;;;;;;21.30;16.42;;;22.60;1.00;;;;;;5021703;28;20091;-76
2023/09/12 07:03:53;;;;;;;21.23;16.48;;;22.60;1.00;;;;;;5023514;28;20021;-76
2023/09/12 07:06:19;;;;;;;21.55;16.30;;;22.60;1.00;;;;;;5024713;28;20083;-76
2023/09/12 07:08:45;;;;;;;17.15;15.35;;;22.70;1.00;;;;;;5023855;28;20017;-76
2023/09/12 07:11:11;;;;;;;21.48;16.33;;;22.70;1.00;;;;;;5021475;28;20030;-77
2023/09/12 07:13:36;;;;;;;22.98;16.02;;;22.80;1.00;;;;;;4998878;28;20018;-77
2023/09/12 07:16:04;;;;;;;21.15;16.23;;;22.80;1.00;;;;;;5019458;28;20029;-76
2023/09/12 07:18:32;;;;;;;26.00;16.35;;;22.90;1.00;;;;;;5029114;28;20018;-76
2023/09/12 07:21:03;;;;;;;19.83;15.43;;;22.90;1.00;;;;;;5012657;28;20025;-75
2023/09/12 07:23:29;;;;;;;23.33;15.65;;;23.00;99.90;;;;;;5031648;28;20398;-76
2023/09/12 07:25:57;;;;;;;20.23;14.77;;;23.10;99.90;;;;;;5015894;28;20034;-77
2023/09/12 07:28:24;;;;;;;19.33;13.32;;;23.10;99.90;;;;;;5033251;28;20079;-76
2023/09/12 07:30:49;;;;;;;16.23;13.45;;;23.20;99.90;;;;;;5021230;28;20109;-76
2023/09/12 07:33:15;;;;;;;14.43;12.55;;;23.20;99.90;;;;;;5027225;28;20097;-76
2023/09/12 07:35:41;;;;;;;14.00;12.35;;;23.30;99.90;;;;;;5021403;28;20022;-77
2023/09/12 07:38:06;;;;;;;19.08;13.00;;;23.40;99.90;;;;;;5026516;28;20018;-76
2023/09/12 07:40:32;;;;;;;17.73;12.57;;;23.50;99.90;;;;;;5020024;28;20029;-76
2023/09/12 07:42:58;;;;;;;13.50;12.00;;;23.50;99.90;;;;;;5012440;28;20130;-76
2023/09/12 07:45:24;;;;;;;15.73;13.10;;;23.50;99.90;;;;;;5004266;28;20021;-76
2023/09/12 07:47:50;;;;;;;16.52;12.40;;;23.60;99.90;;;;;;5022885;28;20490;-76
2023/09/12 07:50:15;;;;;;;13.65;11.88;;;23.60;99.90;;;;;;5020434;28;20034;-76
2023/09/12 07:52:41;;;;;;;14.93;12.95;;;23.70;99.90;;;;;;5023010;28;20046;-76
2023/09/12 07:55:07;;;;;;;16.52;12.38;;;23.70;99.90;;;;;;5021333;28;20030;-73
2023/09/12 07:57:34;;;;;;;16.55;13.02;;;23.70;99.90;;;;;;5006210;28;20551;-73
2023/09/12 08:00:05;;;;;;;16.10;12.23;;;23.70;99.90;;;;;;5020496;28;20044;-73
2023/09/12 08:02:30;;;;;;;20.10;12.27;;;23.70;99.90;;;;;;5003070;28;20070;-76
2023/09/12 08:04:56;;;;;;;16.38;11.65;;;23.70;99.90;;;;;;5021777;28;20375;-76
2023/09/12 08:07:22;;;;;;;14.57;12.52;;;23.70;99.90;;;;;;5004621;28;20021;-75
2023/09/12 08:09:55;;;;;;;13.32;11.70;;;23.70;99.90;;;;;;5002632;28;20115;-76
2023/09/12 08:12:23;;;;;;;12.27;11.07;;;23.70;99.90;;;;;;5009557;28;20437;-76
2023/09/12 08:14:49;;;;;;;13.48;11.38;;;23.80;99.90;;;;;;5021067;28;20026;-76
2023/09/12 08:17:15;;;;;;;13.23;11.25;;;23.80;99.90;;;;;;5005305;28;20025;-76
2023/09/12 08:19:41;;;;;;;14.68;11.70;;;23.80;99.90;;;;;;5019041;28;20029;-77
2023/09/12 08:22:09;;;;;;;17.50;10.30;;;23.90;99.90;;;;;;5022187;28;20033;-76
2023/09/12 08:24:35;;;;;;;18.30;11.23;;;23.90;99.90;;;;;;5021882;28;20030;-76
2023/09/12 08:27:01;;;;;;;16.13;10.82;;;24.00;99.90;;;;;;5022037;28;20026;-76
2023/09/12 08:29:32;;;;;;;12.13;10.65;;;24.00;99.90;;;;;;5023072;28;20029;-76
2023/09/12 08:31:58;;;;;;;11.40;10.20;;;24.10;99.90;;;;;;5021297;28;20022;-76
2023/09/12 08:34:23;;;;;;;10.43;9.48;;;24.10;99.90;;;;;;5020764;28;20513;-76
2023/09/12 08:36:49;;;;;;;12.75;10.93;;;24.20;99.90;;;;;;5022803;28;20048;-76
2023/09/12 08:39:17;;;;;;;11.77;10.57;;;24.20;99.90;;;;;;5019897;28;20033;-74
2023/09/12 08:41:46;;;;;;;15.57;10.50;;;24.20;96.10;;;;;;5021921;28;20431;-73
2023/09/12 08:44:12;;;;;;;12.00;10.02;;;24.30;99.90;;;;;;5020652;28;20021;-74
2023/09/12 08:46:40;;;;;;;19.95;10.70;;;24.30;1.00;;;;;;5022745;28;20014;-73
2023/09/12 08:49:06;;;;;;;15.60;10.38;;;24.30;1.00;;;;;;5019817;28;20022;-74
2023/09/12 08:51:32;;;;;;;11.43;10.32;;;24.30;99.90;;;;;;5003734;28;20039;-73
2023/09/12 08:53:59;;;;;;;12.02;10.05;;;24.30;99.90;;;;;;5021564;28;20129;-74
2023/09/12 08:56:25;;;;;;;24.10;10.75;;;24.40;51.30;;;;;;5022112;28;20500;-74
2023/09/12 08:58:52;;;;;;;14.82;10.35;;;24.50;1.00;;;;;;5022549;28;20493;-76
2023/09/12 09:01:19;;;;;;;13.05;10.85;;;24.40;1.00;;;;;;5020585;28;20041;-75
2023/09/12 09:03:45;;;;;;;13.88;10.85;;;24.40;1.00;;;;;;5020539;28;20067;-75
2023/09/12 09:06:13;;;;;;;13.70;10.45;;;24.50;16.90;;;;;;5022461;28;20026;-75
2023/09/12 09:08:40;;;;;;;12.15;10.70;;;24.50;1.00;;;;;;5019692;28;20030;-76
2023/09/12 09:11:06;;;;;;;14.82;11.15;;;24.50;1.00;;;;;;5021234;28;20538;-76
2023/09/12 09:13:35;;;;;;;15.13;10.60;;;24.50;1.00;;;;;;5021467;28;20451;-74
2023/09/12 09:16:10;;;;;;;14.30;12.45;;;24.50;99.90;;;;;;5019398;28;20026;-76
2023/09/12 09:18:56;;;;;;;14.05;11.88;;;24.60;99.90;;;;;;5003293;28;20099;-76
2023/09/12 09:21:25;;;;;;;19.30;12.38;;;24.60;19.40;;;;;;5021040;28;20026;-76
2023/09/12 09:23:52;;;;;;;14.75;12.25;;;24.60;1.00;;;;;;5007177;28;20018;-76
2023/09/12 09:26:18;;;;;;;15.82;13.13;;;24.60;1.00;;;;;;5013469;28;20433;-76
2023/09/12 09:28:44;;;;;;;18.92;11.57;;;24.60;74.40;;;;;;5026313;28;20026;-75
2023/09/12 09:31:14;;;;;;;15.32;12.15;;;24.70;99.90;;;;;;5031919;28;20075;-76
2023/09/12 09:33:40;;;;;;;23.88;14.68;;;24.70;99.90;;;;;;5030410;28;20026;-76
2023/09/12 09:36:07;;;;;;;18.23;12.63;;;24.80;1.00;;;;;;5003509;28;20022;-76
2023/09/12 09:38:36;;;;;;;18.27;14.15;;;24.80;9.00;;;;;;5025549;28;20037;-76
2023/09/12 09:41:06;;;;;;;17.48;13.20;;;24.80;1.00;;;;;;5014252;28;20045;-75
2023/09/12 09:43:33;;;;;;;20.77;13.80;;;24.90;10.80;;;;;;5026241;28;20021;-76
2023/09/12 09:45:59;;;;;;;18.10;13.63;;;24.90;1.00;;;;;;5026677;28;20061;-76
2023/09/12 09:48:30;;;;;;;13.77;12.35;;;24.90;1.00;;;;;;5020859;28;20021;-75
2023/09/12 09:51:03;;;;;;;29.50;12.65;;;25.00;99.90;;;;;;5025989;28;20026;-75
2023/09/12 09:53:32;;;;;;;18.33;13.07;;;25.00;99.90;;;;;;5025980;28;20733;-75
2023/09/12 09:56:11;;;;;;;22.55;12.32;;;25.10;1.00;;;;;;5020808;28;20432;-76
2023/09/12 09:58:50;;;;;;;21.70;12.65;;;25.30;4.10;;;;;;5020091;28;20018;-76
2023/09/12 10:01:36;;;;;;;17.45;13.45;;;25.30;1.00;;;;;;5026323;28;20112;-76
2023/09/12 10:04:03;;;;;;;20.50;12.10;;;25.40;1.00;;;;;;5018946;28;20116;-76
2023/09/12 10:06:30;;;;;;;18.55;14.52;;;25.50;1.00;;;;;;5032793;28;20025;-76
2023/09/12 10:08:58;;;;;;;15.55;13.93;;;25.50;99.90;;;;;;5025708;28;20402;-76
2023/09/12 10:11:27;;;;;;;16.83;14.50;;;25.50;99.90;;;;;;5029653;28;20026;-76
2023/09/12 10:13:55;;;;;;;21.13;12.75;;;25.60;99.90;;;;;;5018074;28;20018;-76
2023/09/12 10:16:25;;;;;;;24.13;13.02;;;25.60;99.90;;;;;;5014229;28;20029;-76
2023/09/12 10:19:06;;;;;;;25.73;12.30;;;25.70;99.90;;;;;;5017383;28;20028;-75
2023/09/12 10:21:34;;;;;;;25.33;14.48;;;25.80;99.90;;;;;;5006803;28;20037;-75
2023/09/12 10:24:03;;;;;;;21.67;13.88;;;25.90;99.90;;;;;;5025110;28;20060;-76
2023/09/12 10:26:31;;;;;;;23.50;14.93;;;25.90;99.90;;;;;;5025974;28;20492;-76
2023/09/12 10:29:02;;;;;;;29.23;16.83;;;25.90;99.90;;;;;;5023850;28;20546;-75
2023/09/12 10:31:29;;;;;;;21.73;17.17;;;26.00;99.90;;;;;;5024900;28;20365;-76
2023/09/12 10:33:55;;;;;;;21.98;16.02;;;26.10;99.90;;;;;;5021402;28;20252;-76
2023/09/12 10:36:25;;;;;;;19.83;14.77;;;26.10;99.90;;;;;;5022494;28;20021;-76
2023/09/12 10:38:51;;;;;;;26.00;17.08;;;26.30;99.90;;;;;;5023837;28;20021;-76
2023/09/12 10:41:19;;;;;;;31.48;17.67;;;26.30;99.90;;;;;;5021823;28;20076;-73
2023/09/12 10:43:46;;;;;;;27.92;17.48;;;26.20;99.90;;;;;;5005753;28;20083;-73
2023/09/12 10:46:12;;;;;;;27.25;15.63;;;26.20;99.90;;;;;;5023058;28;20045;-75
2023/09/12 10:48:40;;;;;;;25.00;14.88;;;26.20;99.90;;;;;;5022454;28;20068;-75
2023/09/12 10:51:07;;;;;;;22.50;16.90;;;26.30;99.90;;;;;;5024479;28;20022;-76
2023/09/12 10:53:38;;;;;;;24.88;17.17;;;26.30;99.90;;;;;;5021525;28;20050;-76
2023/09/12 10:56:07;;;;;;;29.45;17.92;;;26.30;99.90;;;;;;5022283;28;20033;-76
2023/09/12 10:58:33;;;;;;;22.88;15.88;;;26.50;99.90;;;;;;5019195;28;20030;-75
2023/09/12 11:01:34;;;;;;;23.33;17.02;;;26.40;99.90;;;;;;5022829;28;20030;-75
2023/09/12 11:04:19;;;;;;;21.05;17.38;;;26.60;99.90;;;;;;4962148;28;20710;-75
2023/09/12 11:06:45;;;;;;;24.40;18.17;;;26.60;99.90;;;;;;5017928;28;20034;-76
2023/09/12 11:09:16;;;;;;;22.17;16.45;;;26.60;99.90;;;;;;5020235;28;20474;-73
2023/09/12 11:12:03;;;;;;;23.20;17.15;;;26.60;99.90;;;;;;5020395;28;20033;-74
2023/09/12 11:14:29;;;;;;;22.92;17.60;;;26.70;99.90;;;;;;5021211;28;20025;-74
2023/09/12 11:17:20;;;;;;;25.90;18.17;;;26.70;99.90;;;;;;5022811;28;20084;-75
2023/09/12 11:19:51;;;;;;;26.25;20.83;;;26.70;99.90;;;;;;5004373;28;20026;-76
2023/09/12 11:22:24;;;;;;;;;;;26.80;99.90;;;;;;5003806;28;20053;-75
2023/09/12 11:24:50;;;;;;;22.65;17.60;;;26.70;99.90;;;;;;5025454;28;19905;-76
2023/09/12 11:27:17;;;;;;;30.73;19.35;;;26.70;99.90;;;;;;5024214;28;20116;-75
2023/09/12 11:29:42;;;;;;;25.33;18.67;;;26.70;99.90;;;;;;5023547;28;20388;-75
2023/09/12 11:32:09;;;;;;;26.90;20.25;;;26.70;99.90;;;;;;5024086;28;20027;-75
2023/09/12 11:34:42;;;;;;;19.90;16.02;;;26.80;99.90;;;;;;5006271;28;20555;-75
2023/09/12 11:37:09;;;;;;;25.67;18.05;;;26.90;99.90;;;;;;5021090;28;20042;-76
2023/09/12 11:39:39;;;;;;;22.50;16.77;;;27.10;99.90;;;;;;5023673;28;20519;-77
2023/09/12 11:42:08;;;;;;;19.02;15.80;;;27.20;99.90;;;;;;5019948;28;20507;-76
2023/09/12 11:44:34;;;;;;;23.83;15.63;;;27.20;99.90;;;;;;5022892;28;20024;-77
2023/09/12 11:47:06;;;;;;;20.02;16.17;;;27.30;99.90;;;;;;5020224;28;20029;-76
2023/09/12 11:49:41;;;;;;;21.75;16.30;;;27.40;99.90;;;;;;5022503;28;20029;-75
2023/09/12 11:52:16;;;;;;;26.52;17.60;;;27.40;99.90;;;;;;5023412;28;20056;-73
2023/09/12 11:54:42;;;;;;;24.73;15.15;;;27.40;99.90;;;;;;5021321;28;20021;-73
2023/09/12 11:57:13;;;;;;;21.92;15.60;;;27.40;99.90;;;;;;5024521;28;20104;-76
2023/09/12 11:59:51;;;;;;;19.33;14.87;;;27.50;99.90;;;;;;5013305;28;20029;-76
2023/09/12 12:02:18;;;;;;;16.90;14.75;;;27.60;99.90;;;;;;5013646;28;20017;-75
2023/09/12 12:04:44;;;;;;;19.02;14.77;;;27.70;99.90;;;;;;5020166;28;20018;-77
2023/09/12 12:07:10;;;;;;;23.65;16.45;;;27.80;99.90;;;;;;5022739;28;20375;-75
2023/09/12 12:09:36;;;;;;;24.58;15.27;;;27.90;99.90;;;;;;5021381;28;20021;-76
2023/09/12 12:12:13;;;;;;;18.60;16.35;;;27.90;99.90;;;;;;5003534;28;20088;-76
2023/09/12 12:14:42;;;;;;;22.25;14.88;;;27.90;99.90;;;;;;5020636;28;20018;-76
2023/09/12 12:17:12;;;;;;;27.38;19.42;;;27.90;99.90;;;;;;5021368;28;20020;-76
2023/09/12 12:19:38;;;;;;;19.50;17.00;;;27.90;99.90;;;;;;5022847;28;20026;-76
2023/09/12 12:22:09;;;;;;;18.70;15.82;;;27.90;99.90;;;;;;5020531;28;20116;-76
2023/09/12 12:24:45;;;;;;;24.92;18.27;;;27.90;99.90;;;;;;5021309;28;20053;-76
2023/09/12 12:27:11;;;;;;;27.95;18.15;;;27.90;99.90;;;;;;5022281;28;20121;-76
2023/09/12 12:29:39;;;;;;;26.27;17.88;;;28.00;99.90;;;;;;5004315;28;20104;-75
2023/09/12 12:32:06;;;;;;;25.30;17.08;;;28.10;99.90;;;;;;5021924;28;20030;-76